createdAt,value
2023-07-29T00:01:52.670Z,99.90
2023-07-29T00:03:55.480Z,99.90
2023-07-29T00:05:58.339Z,99.90
2023-07-29T00:08:01.202Z,99.90
2023-07-29T00:10:04.549Z,99.90
2023-07-29T00:12:07.738Z,99.90
2023-07-29T00:14:13.289Z,99.90
2023-07-29T00:16:18.455Z,99.90
2023-07-29T00:18:23.449Z,99.90
2023-07-29T00:20:26.246Z,99.90
2023-07-29T00:22:28.910Z,99.90
2023-07-29T00:24:31.711Z,99.90
2023-07-29T00:26:36.007Z,99.90
2023-07-29T00:28:39.781Z,99.90
2023-07-29T00:30:45.059Z,99.90
2023-07-29T00:32:49.798Z,99.90
2023-07-29T00:34:52.563Z,99.90
2023-07-29T00:36:55.274Z,99.90
2023-07-29T00:38:59.034Z,99.90
2023-07-29T00:41:03.519Z,99.90
2023-07-29T00:43:06.235Z,99.90
2023-07-29T00:45:10.105Z,99.90
2023-07-29T00:47:20.243Z,99.90
2023-07-29T00:49:25.596Z,99.90
2023-07-29T00:51:28.675Z,99.90
2023-07-29T00:53:34.151Z,99.90
2023-07-29T00:55:37.196Z,99.90
2023-07-29T00:57:40.705Z,99.90
2023-07-29T00:59:43.484Z,99.90
2023-07-29T01:01:46.476Z,99.90
2023-07-29T01:03:51.840Z,99.90
2023-07-29T01:06:05.768Z,99.90
2023-07-29T01:08:17.779Z,99.90
2023-07-29T01:10:31.909Z,99.90
2023-07-29T01:12:44.162Z,99.90
2023-07-29T01:14:52.485Z,99.90
2023-07-29T01:16:59.822Z,99.90
2023-07-29T01:19:10.498Z,99.90
2023-07-29T01:21:15.514Z,99.90
2023-07-29T01:23:24.875Z,99.90
2023-07-29T01:25:28.592Z,99.90
2023-07-29T01:27:31.145Z,99.90
2023-07-29T01:29:33.749Z,99.90
2023-07-29T01:31:44.560Z,99.90
2023-07-29T01:33:52.920Z,99.90
2023-07-29T01:36:02.590Z,99.90
2023-07-29T01:38:10.902Z,99.90
2023-07-29T01:40:17.887Z,99.90
2023-07-29T01:42:20.608Z,99.90
2023-07-29T01:44:23.274Z,99.90
2023-07-29T01:46:27.176Z,99.90
2023-07-29T01:48:31.757Z,99.90
2023-07-29T01:50:34.389Z,99.90
2023-07-29T01:52:37.392Z,99.90
2023-07-29T01:54:42.009Z,99.90
2023-07-29T01:56:47.141Z,99.90
2023-07-29T01:58:49.715Z,99.90
2023-07-29T02:00:52.583Z,99.90
2023-07-29T02:02:55.116Z,99.90
2023-07-29T02:04:57.760Z,99.90
2023-07-29T02:07:00.334Z,99.90
2023-07-29T02:09:02.969Z,99.90
2023-07-29T02:11:05.850Z,99.90
2023-07-29T02:13:11.329Z,99.90
2023-07-29T02:15:14.840Z,99.90
2023-07-29T02:17:17.342Z,99.90
2023-07-29T02:19:20.093Z,99.90
2023-07-29T02:21:25.363Z,99.90
2023-07-29T02:23:28.221Z,99.90
2023-07-29T02:25:30.808Z,99.90
2023-07-29T02:27:33.669Z,99.90
2023-07-29T02:29:38.801Z,99.90
2023-07-29T02:31:41.430Z,99.90
2023-07-29T02:33:44.307Z,99.90
2023-07-29T02:35:47.187Z,99.90
2023-07-29T02:37:49.732Z,99.90
2023-07-29T02:39:59.165Z,99.90
2023-07-29T02:42:03.078Z,99.90
2023-07-29T02:44:06.883Z,99.90
2023-07-29T02:46:12.160Z,99.90
2023-07-29T02:48:14.774Z,99.90
2023-07-29T02:50:17.517Z,99.90
2023-07-29T02:52:20.086Z,99.90
2023-07-29T02:54:22.810Z,99.90
2023-07-29T02:56:25.502Z,99.90
2023-07-29T02:58:27.998Z,99.90
2023-07-29T03:00:33.246Z,99.90
2023-07-29T03:02:38.744Z,99.90
2023-07-29T03:04:41.478Z,99.90
2023-07-29T03:06:44.051Z,99.90
2023-07-29T03:08:49.427Z,99.90
2023-07-29T03:10:51.978Z,99.90
2023-07-29T03:12:56.516Z,99.90
2023-07-29T03:14:59.964Z,99.90
2023-07-29T03:17:05.467Z,99.90
2023-07-29T03:19:12.003Z,99.90
2023-07-29T03:21:14.919Z,99.90
2023-07-29T03:23:17.474Z,99.90
2023-07-29T03:25:20.126Z,99.90
2023-07-29T03:27:22.785Z,99.90
2023-07-29T03:29:25.222Z,99.90
2023-07-29T03:31:29.080Z,99.90
2023-07-29T03:33:31.689Z,99.90
2023-07-29T03:35:37.462Z,99.90
2023-07-29T03:37:40.385Z,99.90
2023-07-29T03:39:43.114Z,99.90
2023-07-29T03:41:45.579Z,99.90
2023-07-29T03:43:48.972Z,99.90
2023-07-29T03:45:51.666Z,99.90
2023-07-29T03:47:54.332Z,99.90
2023-07-29T03:49:56.834Z,99.90
2023-07-29T03:52:02.475Z,99.90
2023-07-29T03:54:04.986Z,99.90
2023-07-29T03:56:08.094Z,99.90
2023-07-29T03:58:10.745Z,99.90
2023-07-29T04:00:13.686Z,99.90
2023-07-29T04:02:19.157Z,99.90
2023-07-29T04:04:22.044Z,99.90
2023-07-29T04:06:24.721Z,99.90
2023-07-29T04:08:30.208Z,99.90
2023-07-29T04:10:33.521Z,99.90
2023-07-29T04:12:36.261Z,99.90
2023-07-29T04:14:38.839Z,99.90
2023-07-29T04:16:41.492Z,99.90
2023-07-29T04:18:44.050Z,99.90
2023-07-29T04:20:48.852Z,99.90
2023-07-29T04:22:51.503Z,99.90
2023-07-29T04:24:56.660Z,99.90
2023-07-29T04:26:59.361Z,99.90
2023-07-29T04:29:01.860Z,99.90
2023-07-29T04:31:04.511Z,99.90
2023-07-29T04:33:08.516Z,99.90
2023-07-29T04:35:12.804Z,99.90
2023-07-29T04:37:15.349Z,99.90
2023-07-29T04:39:18.113Z,99.90
2023-07-29T04:41:23.418Z,99.90
2023-07-29T04:43:28.745Z,99.90
2023-07-29T04:45:32.586Z,99.90
2023-07-29T04:47:36.326Z,99.90
2023-07-29T04:49:38.847Z,99.90
2023-07-29T04:51:42.398Z,99.90
2023-07-29T04:53:44.898Z,99.90
2023-07-29T04:55:47.506Z,99.90
2023-07-29T04:57:52.726Z,99.90
2023-07-29T04:59:55.357Z,99.90
2023-07-29T05:01:58.058Z,99.90
2023-07-29T05:04:00.740Z,99.90
2023-07-29T05:06:04.476Z,99.90
2023-07-29T05:08:06.925Z,99.90
2023-07-29T05:10:10.514Z,99.90
2023-07-29T05:12:13.117Z,99.90
2023-07-29T05:14:19.372Z,99.90
2023-07-29T05:16:22.166Z,99.90
2023-07-29T05:18:24.978Z,99.90
2023-07-29T05:20:27.880Z,99.90
2023-07-29T05:22:33.110Z,99.90
2023-07-29T05:24:35.793Z,99.90
2023-07-29T05:26:39.302Z,99.90
2023-07-29T05:28:42.333Z,99.90
2023-07-29T05:30:48.030Z,99.90
2023-07-29T05:32:50.945Z,99.90
2023-07-29T05:34:53.451Z,99.90
2023-07-29T05:36:58.544Z,99.90
2023-07-29T05:39:01.072Z,99.90
2023-07-29T05:41:04.418Z,99.90
2023-07-29T05:43:06.964Z,99.90
2023-07-29T05:45:10.700Z,99.90
2023-07-29T05:47:16.823Z,99.90
2023-07-29T05:49:19.418Z,99.90
2023-07-29T05:51:22.730Z,99.90
2023-07-29T05:53:25.473Z,99.90
2023-07-29T05:55:28.221Z,99.90
2023-07-29T05:57:30.804Z,99.90
2023-07-29T05:59:33.338Z,99.90
2023-07-29T06:01:36.234Z,99.90
2023-07-29T06:03:41.480Z,99.90
2023-07-29T06:05:44.200Z,99.90
2023-07-29T06:07:48.766Z,99.90
2023-07-29T06:09:51.424Z,99.90
2023-07-29T06:11:55.764Z,99.90
2023-07-29T06:13:58.616Z,99.90
2023-07-29T06:16:01.510Z,99.90
2023-07-29T06:18:04.358Z,99.90
2023-07-29T06:20:11.939Z,99.90
2023-07-29T06:22:14.565Z,99.90
2023-07-29T06:24:17.334Z,99.90
2023-07-29T06:26:19.881Z,99.90
2023-07-29T06:28:24.196Z,99.90
2023-07-29T06:30:27.119Z,99.90
2023-07-29T06:32:29.865Z,99.90
2023-07-29T06:34:32.742Z,99.90
2023-07-29T06:36:38.002Z,99.90
2023-07-29T06:38:40.979Z,99.90
2023-07-29T06:40:43.773Z,99.90
2023-07-29T06:42:46.948Z,99.90
2023-07-29T06:44:49.554Z,99.90
2023-07-29T06:46:52.286Z,99.90
2023-07-29T06:48:55.701Z,99.90
2023-07-29T06:51:01.865Z,99.90
2023-07-29T06:53:07.887Z,99.90
2023-07-29T06:55:10.615Z,99.90
2023-07-29T06:57:13.340Z,99.90
2023-07-29T06:59:15.908Z,99.90
2023-07-29T07:01:18.573Z,99.90
2023-07-29T07:03:21.094Z,99.90
2023-07-29T07:05:23.726Z,99.90
2023-07-29T07:07:26.269Z,99.90
2023-07-29T07:09:31.509Z,99.90
2023-07-29T07:11:34.135Z,99.90
2023-07-29T07:13:36.975Z,99.90
2023-07-29T07:15:39.643Z,99.90
2023-07-29T07:17:42.684Z,99.90
2023-07-29T07:19:45.360Z,99.90
2023-07-29T07:21:47.830Z,99.90
2023-07-29T07:23:51.111Z,99.90
2023-07-29T07:25:56.343Z,99.90
2023-07-29T07:27:58.893Z,99.90
2023-07-29T07:30:01.522Z,99.90
2023-07-29T07:32:04.848Z,99.90
2023-07-29T07:34:07.516Z,99.90
2023-07-29T07:36:10.062Z,99.90
2023-07-29T07:38:12.694Z,99.90
2023-07-29T07:40:15.388Z,99.90
2023-07-29T07:42:20.636Z,99.90
2023-07-29T07:44:23.204Z,99.90
2023-07-29T07:46:25.867Z,99.90
2023-07-29T07:48:28.486Z,99.90
2023-07-29T07:50:32.083Z,99.90
2023-07-29T07:52:34.637Z,99.90
2023-07-29T07:54:37.160Z,99.90
2023-07-29T07:56:39.991Z,99.90
2023-07-29T07:58:45.581Z,99.90
2023-07-29T08:00:48.072Z,99.90
2023-07-29T08:02:50.673Z,99.90
2023-07-29T08:04:53.330Z,99.90
2023-07-29T08:06:55.843Z,99.90
2023-07-29T08:08:59.817Z,99.90
2023-07-29T08:11:09.227Z,99.90
2023-07-29T08:13:12.347Z,99.90
2023-07-29T08:15:17.717Z,99.90
2023-07-29T08:17:24.278Z,99.90
2023-07-29T08:19:28.268Z,99.90
2023-07-29T08:21:33.769Z,99.90
2023-07-29T08:23:42.808Z,99.90
2023-07-29T08:25:49.253Z,99.90
2023-07-29T08:27:53.037Z,99.90
2023-07-29T08:29:57.430Z,99.90
2023-07-29T08:32:03.405Z,99.90
2023-07-29T08:34:06.434Z,99.90
2023-07-29T08:36:09.844Z,99.90
2023-07-29T08:38:12.462Z,99.90
2023-07-29T08:40:15.603Z,99.90
2023-07-29T08:42:20.684Z,99.90
2023-07-29T08:44:24.907Z,99.90
2023-07-29T08:46:28.316Z,99.90
2023-07-29T08:48:41.754Z,99.90
2023-07-29T08:50:49.169Z,99.90
2023-07-29T08:52:53.569Z,99.90
2023-07-29T08:54:56.447Z,99.90
2023-07-29T08:56:59.717Z,99.90
2023-07-29T08:59:03.571Z,99.90
2023-07-29T09:01:07.660Z,99.90
2023-07-29T09:03:10.402Z,99.90
2023-07-29T09:05:15.993Z,99.90
2023-07-29T09:07:19.772Z,99.90
2023-07-29T09:09:23.452Z,99.90
2023-07-29T09:11:26.463Z,99.90
2023-07-29T09:13:30.052Z,99.90
2023-07-29T09:15:34.729Z,99.90
2023-07-29T09:17:41.866Z,99.90
2023-07-29T09:19:49.230Z,99.90
2023-07-29T09:21:56.724Z,99.90
2023-07-29T09:24:05.415Z,99.90
2023-07-29T09:26:10.203Z,99.90
2023-07-29T09:28:14.204Z,99.90
2023-07-29T09:30:17.910Z,99.90
2023-07-29T09:32:21.642Z,99.90
2023-07-29T09:34:26.704Z,99.90
2023-07-29T09:36:31.806Z,99.90
2023-07-29T09:38:40.120Z,99.90
2023-07-29T09:40:46.657Z,99.90
2023-07-29T09:42:50.864Z,99.90
2023-07-29T09:44:57.191Z,99.90
2023-07-29T09:47:08.721Z,99.90
2023-07-29T09:49:12.380Z,99.90
2023-07-29T09:51:16.795Z,99.90
2023-07-29T09:53:23.708Z,99.90
2023-07-29T09:55:38.913Z,99.90
2023-07-29T09:57:43.099Z,99.90
2023-07-29T09:59:55.215Z,99.90
2023-07-29T10:02:01.051Z,99.90
2023-07-29T10:04:05.486Z,99.90
2023-07-29T10:06:15.493Z,99.90
2023-07-29T10:08:42.382Z,99.90
2023-07-29T10:10:50.880Z,99.90
2023-07-29T10:12:54.703Z,99.90
2023-07-29T10:15:05.171Z,99.90
2023-07-29T10:17:07.962Z,99.90
2023-07-29T10:19:11.880Z,99.90
2023-07-29T10:21:15.130Z,99.90
2023-07-29T10:23:19.424Z,99.90
2023-07-29T10:25:25.831Z,99.90
2023-07-29T10:27:31.634Z,99.90
2023-07-29T10:29:43.442Z,99.90
2023-07-29T10:31:46.923Z,99.90
2023-07-29T10:33:56.757Z,99.90
2023-07-29T10:36:00.250Z,99.90
2023-07-29T10:38:04.201Z,99.90
2023-07-29T10:40:14.920Z,99.90
2023-07-29T10:42:25.092Z,99.90
2023-07-29T10:44:55.880Z,99.90
2023-07-29T10:47:13.046Z,99.90
2023-07-29T10:49:35.450Z,99.90
2023-07-29T10:51:51.526Z,99.90
2023-07-29T10:53:58.260Z,99.90
2023-07-29T10:56:05.690Z,99.90
2023-07-29T10:58:17.346Z,99.90
2023-07-29T11:00:24.153Z,99.90
2023-07-29T11:02:38.479Z,99.90
2023-07-29T11:04:48.838Z,99.90
2023-07-29T11:07:25.069Z,99.90
2023-07-29T11:09:44.444Z,99.90
2023-07-29T11:11:47.785Z,99.90
2023-07-29T11:13:55.081Z,99.90
2023-07-29T11:16:01.213Z,99.90
2023-07-29T11:18:16.973Z,99.90
2023-07-29T11:20:50.181Z,99.90
2023-07-29T11:22:56.722Z,99.90
2023-07-29T11:25:03.621Z,99.90
2023-07-29T11:27:12.934Z,99.90
2023-07-29T11:29:17.385Z,99.90
2023-07-29T11:31:39.956Z,99.90
2023-07-29T11:33:46.761Z,99.90
2023-07-29T11:35:50.582Z,99.90
2023-07-29T11:37:54.087Z,99.90
2023-07-29T11:40:02.371Z,99.90
2023-07-29T11:42:12.083Z,99.90
2023-07-29T11:44:21.995Z,99.90
2023-07-29T11:46:30.965Z,99.90
2023-07-29T11:48:35.472Z,99.90
2023-07-29T11:50:38.337Z,99.90
2023-07-29T11:52:43.913Z,99.90
2023-07-29T11:54:50.621Z,99.90
2023-07-29T11:56:53.270Z,99.90
2023-07-29T11:58:56.250Z,99.90
2023-07-29T12:00:58.940Z,99.90
2023-07-29T12:03:04.391Z,99.90
2023-07-29T12:05:08.244Z,99.90
2023-07-29T12:07:11.398Z,99.90
2023-07-29T12:09:14.583Z,99.90
2023-07-29T12:11:17.297Z,99.90
2023-07-29T12:13:19.769Z,99.90
2023-07-29T12:15:26.449Z,99.90
2023-07-29T12:17:29.547Z,99.90
2023-07-29T12:19:38.980Z,99.90
2023-07-29T12:21:43.040Z,99.90
2023-07-29T12:23:45.461Z,99.90
2023-07-29T12:25:47.950Z,99.90
2023-07-29T12:27:50.971Z,99.90
2023-07-29T12:29:55.139Z,99.90
2023-07-29T12:32:01.925Z,99.90
2023-07-29T12:34:04.471Z,99.90
2023-07-29T12:36:09.756Z,99.90
2023-07-29T12:38:12.296Z,99.90
2023-07-29T12:40:24.506Z,99.90
2023-07-29T12:42:27.157Z,99.90
2023-07-29T12:44:32.430Z,99.90
2023-07-29T12:46:35.305Z,99.90
2023-07-29T12:48:38.008Z,99.90
2023-07-29T12:50:40.606Z,99.90
2023-07-29T12:52:46.558Z,99.90
2023-07-29T12:54:49.090Z,99.90
2023-07-29T12:56:51.832Z,99.90
2023-07-29T12:58:54.493Z,99.90
2023-07-29T13:00:57.227Z,99.90
2023-07-29T13:02:59.843Z,99.90
2023-07-29T13:05:02.410Z,99.90
2023-07-29T13:07:06.545Z,99.90
2023-07-29T13:09:12.048Z,99.90
2023-07-29T13:11:15.364Z,99.90
2023-07-29T13:13:17.861Z,99.90
2023-07-29T13:15:20.337Z,99.90
2023-07-29T13:17:23.462Z,99.90
2023-07-29T13:19:25.882Z,99.90
2023-07-29T13:21:28.353Z,99.90
2023-07-29T13:23:31.296Z,99.90
2023-07-29T13:25:36.609Z,99.90
2023-07-29T13:27:39.124Z,99.90
2023-07-29T13:29:41.647Z,99.90
2023-07-29T13:31:44.254Z,99.90
2023-07-29T13:33:46.788Z,99.90
2023-07-29T13:35:49.319Z,99.90
2023-07-29T13:37:53.129Z,99.90
2023-07-29T13:39:55.665Z,99.90
2023-07-29T13:42:00.775Z,99.90
2023-07-29T13:44:03.368Z,99.90
2023-07-29T13:46:05.808Z,99.90
2023-07-29T13:48:08.408Z,99.90
2023-07-29T13:50:11.809Z,99.90
2023-07-29T13:52:14.948Z,99.90
2023-07-29T13:54:18.540Z,99.90
2023-07-29T13:56:21.031Z,99.90
2023-07-29T13:58:27.530Z,99.90
2023-07-29T14:00:32.511Z,99.90
2023-07-29T14:02:35.108Z,99.90
2023-07-29T14:04:37.794Z,99.90
2023-07-29T14:08:45.780Z,99.90
2023-07-29T14:10:48.211Z,99.90
2023-07-29T14:12:51.062Z,99.90
2023-07-29T14:14:56.188Z,99.90
2023-07-29T14:16:58.749Z,99.90
2023-07-29T14:19:01.253Z,99.90
2023-07-29T14:21:03.922Z,99.90
2023-07-29T14:23:06.518Z,99.90
2023-07-29T14:25:09.928Z,99.90
2023-07-29T15:05:57.514Z,99.90
2023-07-29T15:08:00.818Z,99.90
2023-07-29T15:10:03.518Z,99.90
2023-07-29T15:12:07.476Z,99.90
2023-07-29T15:14:10.141Z,99.90
2023-07-29T15:16:12.692Z,99.90
2023-07-29T15:18:15.323Z,99.90
2023-07-29T15:20:17.833Z,99.90
2023-07-29T15:22:23.165Z,99.90
2023-07-29T15:24:25.670Z,99.90
2023-07-29T15:26:28.247Z,99.90
2023-07-29T15:28:31.363Z,99.90
2023-07-29T15:30:40.930Z,99.90
2023-07-29T15:32:46.727Z,99.90
2023-07-29T15:34:49.451Z,99.90
2023-07-29T15:36:52.062Z,99.90
2023-07-29T15:38:57.139Z,99.90
2023-07-29T15:41:00.622Z,99.90
2023-07-29T15:43:03.237Z,99.70
2023-07-29T15:45:07.473Z,99.00
2023-07-29T15:47:10.701Z,96.60
2023-07-29T15:49:13.295Z,94.20
2023-07-29T15:51:15.836Z,95.20
2023-07-29T15:53:18.359Z,95.30
2023-07-29T15:55:23.575Z,96.10
2023-07-29T15:57:26.154Z,97.00
2023-07-29T15:59:28.823Z,97.10
2023-07-29T16:01:31.422Z,95.80
2023-07-29T16:03:34.205Z,95.80
2023-07-29T16:05:37.162Z,95.80
2023-07-29T16:07:40.077Z,95.70
2023-07-29T16:09:43.420Z,94.90
2023-07-29T16:11:48.635Z,95.80
2023-07-29T16:13:51.123Z,96.70
2023-07-29T16:15:53.719Z,97.10
2023-07-29T16:17:56.541Z,96.80
2023-07-29T16:20:00.953Z,96.10
2023-07-29T16:22:04.428Z,95.40
2023-07-29T16:24:07.581Z,95.10
2023-07-29T16:26:10.591Z,94.70
2023-07-29T16:28:17.987Z,95.40
2023-07-29T16:30:24.714Z,95.40
2023-07-29T16:32:27.940Z,96.10
2023-07-29T16:34:33.978Z,96.00
2023-07-29T16:36:37.494Z,96.50
2023-07-29T16:38:42.445Z,95.20
2023-07-29T16:41:01.496Z,93.10
2023-07-29T16:43:09.443Z,94.70
2023-07-29T16:45:15.780Z,94.70
2023-07-29T16:47:22.266Z,94.00
2023-07-29T16:49:25.799Z,93.80
2023-07-29T16:51:29.155Z,94.00
2023-07-29T16:53:33.220Z,94.50
2023-07-29T16:55:36.381Z,94.90
2023-07-29T16:57:46.232Z,95.30
2023-07-29T16:59:52.433Z,95.60
2023-07-29T17:01:58.968Z,96.30
2023-07-29T17:04:02.031Z,96.70
2023-07-29T17:06:10.322Z,96.90
2023-07-29T17:08:14.813Z,97.00
2023-07-29T17:10:22.973Z,97.30
2023-07-29T17:12:26.442Z,97.40
2023-07-29T17:14:32.523Z,97.30
2023-07-29T17:16:38.568Z,96.80
2023-07-29T17:18:47.549Z,96.90
2023-07-29T17:20:51.043Z,97.10
2023-07-29T17:22:54.502Z,97.50
2023-07-29T17:24:59.773Z,97.60
2023-07-29T17:27:03.089Z,98.10
2023-07-29T17:29:09.036Z,98.50
2023-07-29T17:31:11.958Z,98.80
2023-07-29T17:33:15.313Z,99.30
2023-07-29T17:35:21.108Z,99.30
2023-07-29T17:37:24.308Z,99.50
2023-07-29T17:39:27.667Z,99.80
2023-07-29T17:41:34.122Z,99.90
2023-07-29T17:43:45.655Z,99.90
2023-07-29T17:45:50.365Z,99.90
2023-07-29T17:47:53.649Z,99.90
2023-07-29T17:49:56.696Z,99.90
2023-07-29T17:52:02.094Z,99.90
2023-07-29T17:54:04.632Z,99.90
2023-07-29T17:56:09.347Z,99.90
2023-07-29T17:58:13.716Z,99.90
2023-07-29T18:00:16.890Z,99.90
2023-07-29T18:02:20.346Z,99.90
2023-07-29T18:04:24.190Z,99.90
2023-07-29T18:06:26.956Z,99.90
2023-07-29T18:08:33.957Z,99.90
2023-07-29T18:10:40.904Z,99.90
2023-07-29T18:12:44.195Z,99.90
2023-07-29T18:14:49.246Z,99.90
2023-07-29T18:16:52.245Z,99.90
2023-07-29T18:18:55.400Z,99.90
2023-07-29T18:20:58.430Z,99.90
2023-07-29T18:23:05.615Z,99.90
2023-07-29T18:25:11.586Z,99.90
2023-07-29T18:27:14.976Z,99.90
2023-07-29T18:29:20.328Z,99.90
2023-07-29T18:31:25.478Z,99.90
2023-07-29T18:33:31.177Z,99.90
2023-07-29T18:35:41.103Z,99.90
2023-07-29T18:37:44.471Z,99.90
2023-07-29T18:39:47.826Z,99.90
2023-07-29T18:41:54.361Z,99.90
2023-07-29T18:43:59.253Z,99.90
2023-07-29T18:46:05.769Z,99.90
2023-07-29T18:48:08.736Z,99.90
2023-07-29T18:50:11.813Z,99.90
2023-07-29T18:52:15.271Z,99.90
2023-07-29T18:54:18.334Z,99.90
2023-07-29T18:56:24.337Z,99.90
2023-07-29T18:58:30.352Z,99.90
2023-07-29T19:00:39.221Z,99.90
2023-07-29T19:02:45.856Z,99.90
2023-07-29T19:04:49.797Z,99.90
2023-07-29T19:06:57.060Z,99.90
2023-07-29T19:08:59.844Z,99.90
2023-07-29T19:11:03.487Z,99.90
2023-07-29T19:13:08.220Z,99.90
2023-07-29T19:15:14.171Z,99.90
2023-07-29T19:17:16.933Z,99.90
2023-07-29T19:19:22.896Z,99.90
2023-07-29T19:21:26.052Z,99.90
2023-07-29T19:23:32.136Z,99.90
2023-07-29T19:25:45.102Z,99.90
2023-07-29T19:27:50.210Z,99.90
2023-07-29T19:29:53.497Z,99.90
2023-07-29T19:31:59.249Z,99.90
2023-07-29T19:34:02.339Z,99.90
2023-07-29T19:36:07.871Z,99.90
2023-07-29T19:38:11.850Z,99.90
2023-07-29T19:40:15.504Z,99.90
2023-07-29T19:42:21.961Z,99.90
2023-07-29T19:44:25.460Z,99.90
2023-07-29T19:46:39.028Z,99.90
2023-07-29T19:48:52.963Z,99.90
2023-07-29T19:50:55.646Z,99.90
2023-07-29T19:52:58.728Z,99.90
2023-07-29T19:55:01.329Z,99.90
2023-07-29T19:57:05.868Z,99.90
2023-07-29T19:59:08.838Z,99.90
2023-07-29T20:01:12.594Z,99.90
2023-07-29T20:03:15.961Z,99.90
2023-07-29T20:05:21.386Z,99.90
2023-07-29T20:07:24.201Z,99.90
2023-07-29T20:09:27.051Z,99.90
2023-07-29T20:11:31.206Z,99.90
2023-07-29T20:13:34.185Z,99.90
2023-07-29T20:15:37.050Z,99.90
2023-07-29T20:17:40.020Z,99.90
2023-07-29T20:19:45.146Z,99.90
2023-07-29T20:21:50.467Z,99.90
2023-07-29T20:23:55.671Z,99.90
2023-07-29T20:25:58.215Z,99.90
2023-07-29T20:28:00.789Z,99.90
2023-07-29T20:30:04.308Z,99.90
2023-07-29T20:32:07.266Z,99.90
2023-07-29T20:34:09.845Z,99.90
2023-07-29T20:36:12.363Z,99.90
2023-07-29T20:38:17.713Z,99.90
2023-07-29T20:40:20.369Z,99.90
2023-07-29T20:42:22.911Z,99.90
2023-07-29T20:44:28.379Z,99.90
2023-07-29T20:46:30.869Z,99.90
2023-07-29T20:48:33.444Z,99.90
2023-07-29T20:50:39.137Z,99.90
2023-07-29T20:52:41.676Z,99.90
2023-07-29T20:54:46.889Z,99.90
2023-07-29T20:56:49.445Z,99.90
2023-07-29T20:58:52.081Z,99.90
2023-07-29T21:00:55.474Z,99.90
2023-07-29T21:02:58.438Z,99.90
2023-07-29T21:05:01.083Z,99.90
2023-07-29T21:07:03.979Z,99.90
2023-07-29T21:09:06.603Z,99.90
2023-07-29T21:11:11.970Z,99.90
2023-07-29T21:13:15.301Z,99.90
2023-07-29T21:15:17.906Z,99.90
2023-07-29T21:17:20.445Z,99.90
2023-07-29T21:19:23.018Z,99.90
2023-07-29T21:21:25.852Z,99.90
2023-07-29T21:23:28.422Z,99.90
2023-07-29T21:25:31.022Z,99.90
2023-07-29T21:27:36.248Z,99.90
2023-07-29T21:29:38.773Z,99.90
2023-07-29T21:33:46.291Z,99.90
2023-07-29T21:35:52.519Z,99.90
2023-07-29T21:37:56.566Z,99.90
2023-07-29T21:40:00.075Z,99.90
2023-07-29T21:42:03.224Z,99.90
2023-07-29T21:44:08.618Z,99.90
2023-07-29T21:46:11.274Z,99.90
2023-07-29T21:48:14.320Z,99.90
2023-07-29T21:50:17.649Z,99.90
2023-07-29T21:52:20.681Z,99.90
2023-07-29T21:54:26.178Z,99.90
2023-07-29T21:56:33.513Z,99.90
2023-07-29T21:58:37.225Z,99.90
2023-07-29T22:00:43.209Z,99.90
2023-07-29T22:02:45.922Z,99.90
2023-07-29T22:04:48.599Z,99.90
2023-07-29T22:06:51.161Z,99.90
2023-07-29T22:08:53.894Z,99.90
2023-07-29T22:11:01.527Z,99.90
2023-07-29T22:13:04.141Z,99.90
2023-07-29T22:15:08.421Z,99.90
2023-07-29T22:17:14.107Z,99.90
2023-07-29T22:19:16.609Z,99.90
2023-07-29T22:21:19.143Z,99.90
2023-07-29T22:23:21.880Z,99.90
2023-07-29T22:25:24.643Z,99.90
2023-07-29T22:27:27.123Z,99.90
2023-07-29T22:29:32.598Z,99.90
2023-07-29T22:31:35.246Z,99.90
2023-07-29T22:33:40.377Z,99.90
2023-07-29T22:35:42.928Z,99.90
2023-07-29T22:37:45.519Z,99.90
2023-07-29T22:39:49.502Z,99.90
2023-07-29T22:41:52.793Z,99.90
2023-07-29T22:43:55.260Z,99.90
2023-07-29T22:46:00.061Z,99.90
2023-07-29T22:48:02.762Z,99.90
2023-07-29T22:50:09.147Z,99.90
2023-07-29T22:52:11.760Z,99.90
2023-07-29T22:54:14.223Z,99.90
2023-07-29T22:56:16.769Z,99.90
2023-07-29T22:58:20.710Z,99.90
2023-07-29T23:00:23.260Z,99.90
2023-07-29T23:02:26.078Z,99.90
2023-07-29T23:04:28.706Z,99.90
2023-07-29T23:06:33.900Z,99.90
2023-07-29T23:08:39.074Z,99.90
2023-07-29T23:10:41.681Z,99.90
2023-07-29T23:12:44.099Z,99.90
2023-07-29T23:14:46.559Z,99.90
2023-07-29T23:16:49.796Z,99.90
2023-07-29T23:18:52.381Z,99.90
2023-07-29T23:20:55.251Z,99.90
2023-07-29T23:23:00.640Z,99.90
2023-07-29T23:25:03.768Z,99.90
2023-07-29T23:27:08.114Z,99.90
2023-07-29T23:29:10.583Z,99.90
2023-07-29T23:31:13.138Z,99.90
2023-07-29T23:33:15.685Z,99.90
2023-07-29T23:35:18.568Z,99.90
2023-07-29T23:37:21.145Z,99.90
2023-07-29T23:39:26.303Z,99.90
2023-07-29T23:41:28.876Z,99.90
2023-07-29T23:43:31.399Z,99.90
2023-07-29T23:45:34.540Z,99.90
2023-07-29T23:47:37.085Z,99.90
2023-07-29T23:49:39.610Z,99.90
2023-07-29T23:51:42.092Z,99.90
2023-07-29T23:53:44.608Z,99.90
2023-07-29T23:55:49.688Z,99.90
2023-07-29T23:57:52.128Z,99.90
2023-07-29T23:59:54.707Z,99.90
